sensor_id;sensor_type;location;lat;lon;timestamp;pressure;altitude;pressure_sealevel;temperature;humidity
54854;BME280;40747;49.480;8.658;2024-01-10T00:01:22;101352.97;;;-3.02;54.55
54854;BME280;40747;49.480;8.658;2024-01-10T00:03:52;101358.44;;;-2.94;53.86
54854;BME280;40747;49.480;8.658;2024-01-10T00:06:18;101363.72;;;-2.91;54.51
54854;BME280;40747;49.480;8.658;2024-01-10T00:08:43;101361.84;;;-2.95;54.35
54854;BME280;40747;49.480;8.658;2024-01-10T00:11:08;101360.94;;;-2.96;53.94
54854;BME280;40747;49.480;8.658;2024-01-10T00:13:33;101361.88;;;-2.93;53.91
54854;BME280;40747;49.480;8.658;2024-01-10T00:15:59;101360.19;;;-2.93;53.83
54854;BME280;40747;49.480;8.658;2024-01-10T00:18:25;101358.31;;;-2.97;53.88
54854;BME280;40747;49.480;8.658;2024-01-10T00:20:51;101355.56;;;-3.02;54.03
54854;BME280;40747;49.480;8.658;2024-01-10T00:23:19;101354.00;;;-3.18;54.76
54854;BME280;40747;49.480;8.658;2024-01-10T00:25:44;101360.69;;;-3.23;54.28
54854;BME280;40747;49.480;8.658;2024-01-10T00:28:09;101356.28;;;-3.25;54.53
54854;BME280;40747;49.480;8.658;2024-01-10T00:30:35;101347.72;;;-3.24;54.58
54854;BME280;40747;49.480;8.658;2024-01-10T00:33:00;101344.34;;;-3.23;54.25
54854;BME280;40747;49.480;8.658;2024-01-10T00:35:25;101345.59;;;-3.14;54.77
54854;BME280;40747;49.480;8.658;2024-01-10T00:37:50;101340.31;;;-3.17;54.28
54854;BME280;40747;49.480;8.658;2024-01-10T00:40:16;101350.38;;;-3.23;54.33
54854;BME280;40747;49.480;8.658;2024-01-10T00:42:41;101338.25;;;-3.25;54.49
54854;BME280;40747;49.480;8.658;2024-01-10T00:45:07;101326.84;;;-3.31;54.61
54854;BME280;40747;49.480;8.658;2024-01-10T00:47:32;101329.97;;;-3.38;54.84
54854;BME280;40747;49.480;8.658;2024-01-10T00:49:57;101318.16;;;-3.54;55.03
54854;BME280;40747;49.480;8.658;2024-01-10T00:52:23;101329.22;;;-3.35;55.14
54854;BME280;40747;49.480;8.658;2024-01-10T00:54:48;101329.38;;;-3.32;55.38
54854;BME280;40747;49.480;8.658;2024-01-10T00:57:13;101311.69;;;-3.44;55.86
54854;BME280;40747;49.480;8.658;2024-01-10T00:59:40;101331.31;;;-3.26;55.65
54854;BME280;40747;49.480;8.658;2024-01-10T01:02:05;101325.84;;;-3.34;55.21
54854;BME280;40747;49.480;8.658;2024-01-10T01:04:30;101330.06;;;-3.36;55.20
54854;BME280;40747;49.480;8.658;2024-01-10T01:06:55;101326.03;;;-3.30;54.95
54854;BME280;40747;49.480;8.658;2024-01-10T01:09:21;101336.28;;;-3.31;54.95
54854;BME280;40747;49.480;8.658;2024-01-10T01:11:46;101318.16;;;-3.33;55.46
54854;BME280;40747;49.480;8.658;2024-01-10T01:14:11;101320.94;;;-3.28;55.29
54854;BME280;40747;49.480;8.658;2024-01-10T01:16:36;101331.16;;;-3.31;54.98
54854;BME280;40747;49.480;8.658;2024-01-10T01:19:02;101324.34;;;-3.29;54.64
54854;BME280;40747;49.480;8.658;2024-01-10T01:21:27;101325.28;;;-3.27;54.61
54854;BME280;40747;49.480;8.658;2024-01-10T01:23:54;101329.63;;;-3.26;55.05
54854;BME280;40747;49.480;8.658;2024-01-10T01:26:19;101321.66;;;-3.32;55.11
54854;BME280;40747;49.480;8.658;2024-01-10T01:28:44;101336.28;;;-3.31;54.87
54854;BME280;40747;49.480;8.658;2024-01-10T01:31:10;101326.00;;;-3.31;55.15
54854;BME280;40747;49.480;8.658;2024-01-10T01:33:35;101336.53;;;-3.25;54.87
54854;BME280;40747;49.480;8.658;2024-01-10T01:36:01;101344.25;;;-3.25;54.59
54854;BME280;40747;49.480;8.658;2024-01-10T01:38:26;101336.28;;;-3.31;55.00
54854;BME280;40747;49.480;8.658;2024-01-10T01:40:52;101347.09;;;-3.19;55.08
54854;BME280;40747;49.480;8.658;2024-01-10T01:43:22;101338.66;;;-3.15;54.56
54854;BME280;40747;49.480;8.658;2024-01-10T01:45:51;101336.84;;;-3.17;54.56
54854;BME280;40747;49.480;8.658;2024-01-10T01:48:17;101331.56;;;-3.20;54.93
54854;BME280;40747;49.480;8.658;2024-01-10T01:50:42;101330.41;;;-3.28;54.86
54854;BME280;40747;49.480;8.658;2024-01-10T01:53:08;101335.09;;;-3.18;54.89
54854;BME280;40747;49.480;8.658;2024-01-10T01:55:34;101329.13;;;-3.17;54.95
54854;BME280;40747;49.480;8.658;2024-01-10T01:57:59;101336.19;;;-3.13;54.34
54854;BME280;40747;49.480;8.658;2024-01-10T02:00:25;101322.41;;;-3.14;54.11
54854;BME280;40747;49.480;8.658;2024-01-10T02:02:51;101337.75;;;-3.17;54.52
54854;BME280;40747;49.480;8.658;2024-01-10T02:05:17;101330.31;;;-3.30;54.12
54854;BME280;40747;49.480;8.658;2024-01-10T02:07:43;101328.75;;;-3.26;54.72
54854;BME280;40747;49.480;8.658;2024-01-10T02:10:08;101329.19;;;-3.16;54.12
54854;BME280;40747;49.480;8.658;2024-01-10T02:12:33;101323.66;;;-3.25;54.98
54854;BME280;40747;49.480;8.658;2024-01-10T02:14:59;101318.69;;;-3.20;54.44
54854;BME280;40747;49.480;8.658;2024-01-10T02:17:24;101337.75;;;-3.17;54.30
54854;BME280;40747;49.480;8.658;2024-01-10T02:20:07;101335.66;;;-3.25;54.00
54854;BME280;40747;49.480;8.658;2024-01-10T02:22:32;101332.28;;;-3.24;54.54
54854;BME280;40747;49.480;8.658;2024-01-10T02:24:58;101303.03;;;-3.46;54.71
54854;BME280;40747;49.480;8.658;2024-01-10T02:27:24;101334.16;;;-3.41;54.44
54854;BME280;40747;49.480;8.658;2024-01-10T02:29:50;101337.78;;;-3.36;55.13
54854;BME280;40747;49.480;8.658;2024-01-10T02:32:15;101328.31;;;-3.37;54.71
54854;BME280;40747;49.480;8.658;2024-01-10T02:34:41;101332.13;;;-3.27;54.93
54854;BME280;40747;49.480;8.658;2024-01-10T02:37:06;101326.31;;;-3.43;54.83
54854;BME280;40747;49.480;8.658;2024-01-10T02:39:31;101316.91;;;-3.42;54.94
54854;BME280;40747;49.480;8.658;2024-01-10T02:41:56;101323.63;;;-3.46;54.74
54854;BME280;40747;49.480;8.658;2024-01-10T02:44:22;101308.63;;;-3.35;54.63
54854;BME280;40747;49.480;8.658;2024-01-10T02:46:48;101321.81;;;-3.27;54.35
54854;BME280;40747;49.480;8.658;2024-01-10T02:49:13;101308.06;;;-3.28;54.54
54854;BME280;40747;49.480;8.658;2024-01-10T02:51:39;101315.25;;;-3.21;54.37
54854;BME280;40747;49.480;8.658;2024-01-10T02:54:04;101317.25;;;-3.14;54.51
54854;BME280;40747;49.480;8.658;2024-01-10T02:56:29;101315.38;;;-3.18;54.34
54854;BME280;40747;49.480;8.658;2024-01-10T02:58:55;101304.09;;;-3.20;54.54
54854;BME280;40747;49.480;8.658;2024-01-10T03:01:20;101321.47;;;-3.16;54.75
54854;BME280;40747;49.480;8.658;2024-01-10T03:03:45;101295.44;;;-3.22;54.59
54854;BME280;40747;49.480;8.658;2024-01-10T03:06:11;101308.31;;;-3.01;54.37
54854;BME280;40747;49.480;8.658;2024-01-10T03:08:36;101308.09;;;-2.84;54.15
54854;BME280;40747;49.480;8.658;2024-01-10T03:11:01;101293.03;;;-2.75;54.14
54854;BME280;40747;49.480;8.658;2024-01-10T03:13:26;101313.50;;;-2.57;54.36
54854;BME280;40747;49.480;8.658;2024-01-10T03:15:52;101313.94;;;-2.44;53.61
54854;BME280;40747;49.480;8.658;2024-01-10T03:18:17;101312.88;;;-2.50;54.41
54854;BME280;40747;49.480;8.658;2024-01-10T03:20:42;101282.28;;;-2.63;55.22
54854;BME280;40747;49.480;8.658;2024-01-10T03:23:07;101309.69;;;-2.44;55.08
54854;BME280;40747;49.480;8.658;2024-01-10T03:25:33;101305.16;;;-2.50;55.12
54854;BME280;40747;49.480;8.658;2024-01-10T03:27:58;101290.56;;;-2.72;55.32
54854;BME280;40747;49.480;8.658;2024-01-10T03:30:23;101293.19;;;-2.70;55.44
54854;BME280;40747;49.480;8.658;2024-01-10T03:32:49;101295.25;;;-2.61;55.25
54854;BME280;40747;49.480;8.658;2024-01-10T03:35:15;101296.13;;;-2.61;55.50
54854;BME280;40747;49.480;8.658;2024-01-10T03:37:40;101299.53;;;-2.62;56.02
54854;BME280;40747;49.480;8.658;2024-01-10T03:40:06;101303.19;;;-2.57;55.23
54854;BME280;40747;49.480;8.658;2024-01-10T03:42:31;101300.94;;;-2.48;55.33
54854;BME280;40747;49.480;8.658;2024-01-10T03:44:56;101290.97;;;-2.38;54.28
54854;BME280;40747;49.480;8.658;2024-01-10T03:47:22;101296.59;;;-2.26;54.09
54854;BME280;40747;49.480;8.658;2024-01-10T03:49:47;101291.47;;;-2.24;54.55
54854;BME280;40747;49.480;8.658;2024-01-10T03:52:12;101305.63;;;-2.15;54.91
54854;BME280;40747;49.480;8.658;2024-01-10T03:54:38;101295.34;;;-2.13;54.63
54854;BME280;40747;49.480;8.658;2024-01-10T03:57:04;101300.03;;;-2.25;54.52
54854;BME280;40747;49.480;8.658;2024-01-10T03:59:29;101298.94;;;-2.32;54.54
54854;BME280;40747;49.480;8.658;2024-01-10T04:01:55;101294.00;;;-2.26;54.67
54854;BME280;40747;49.480;8.658;2024-01-10T04:04:20;101298.75;;;-2.14;55.04
54854;BME280;40747;49.480;8.658;2024-01-10T04:06:45;101298.22;;;-2.05;55.46
54854;BME280;40747;49.480;8.658;2024-01-10T04:09:11;101282.63;;;-2.08;55.28
54854;BME280;40747;49.480;8.658;2024-01-10T04:11:38;101303.81;;;-1.93;54.96
54854;BME280;40747;49.480;8.658;2024-01-10T04:14:03;101308.91;;;-1.94;54.59
54854;BME280;40747;49.480;8.658;2024-01-10T04:16:29;101298.56;;;-1.94;54.75
54854;BME280;40747;49.480;8.658;2024-01-10T04:18:54;101293.50;;;-1.93;56.39
54854;BME280;40747;49.480;8.658;2024-01-10T04:21:19;101290.72;;;-1.98;56.23
54854;BME280;40747;49.480;8.658;2024-01-10T04:23:44;101295.91;;;-1.98;56.44
54854;BME280;40747;49.480;8.658;2024-01-10T04:26:10;101296.56;;;-2.03;56.08
54854;BME280;40747;49.480;8.658;2024-01-10T04:28:35;101297.38;;;-2.04;55.14
54854;BME280;40747;49.480;8.658;2024-01-10T04:31:00;101295.66;;;-2.28;53.95
54854;BME280;40747;49.480;8.658;2024-01-10T04:33:25;101302.09;;;-2.39;55.99
54854;BME280;40747;49.480;8.658;2024-01-10T04:35:51;101303.81;;;-2.40;54.59
54854;BME280;40747;49.480;8.658;2024-01-10T04:38:16;101302.97;;;-2.61;56.36
54854;BME280;40747;49.480;8.658;2024-01-10T04:40:41;101301.84;;;-2.91;56.29
54854;BME280;40747;49.480;8.658;2024-01-10T04:43:07;101305.66;;;-2.58;56.67
54854;BME280;40747;49.480;8.658;2024-01-10T04:45:32;101295.78;;;-2.48;56.97
54854;BME280;40747;49.480;8.658;2024-01-10T04:47:57;101299.41;;;-2.42;56.53
54854;BME280;40747;49.480;8.658;2024-01-10T04:50:23;101303.75;;;-2.41;56.97
54854;BME280;40747;49.480;8.658;2024-01-10T04:52:49;101290.25;;;-2.34;57.07
54854;BME280;40747;49.480;8.658;2024-01-10T04:55:14;101310.72;;;-2.16;56.27
54854;BME280;40747;49.480;8.658;2024-01-10T04:57:40;101310.25;;;-2.06;56.59
54854;BME280;40747;49.480;8.658;2024-01-10T05:00:05;101311.13;;;-2.05;56.17
54854;BME280;40747;49.480;8.658;2024-01-10T05:02:31;101317.41;;;-1.97;56.39
54854;BME280;40747;49.480;8.658;2024-01-10T05:04:57;101314.22;;;-2.14;57.08
54854;BME280;40747;49.480;8.658;2024-01-10T05:07:23;101322.16;;;-2.32;57.81
54854;BME280;40747;49.480;8.658;2024-01-10T05:09:48;101315.84;;;-2.40;57.69
54854;BME280;40747;49.480;8.658;2024-01-10T05:12:13;101304.88;;;-2.35;58.13
54854;BME280;40747;49.480;8.658;2024-01-10T05:14:39;101310.59;;;-2.19;57.90
54854;BME280;40747;49.480;8.658;2024-01-10T05:17:04;101315.03;;;-2.15;59.00
54854;BME280;40747;49.480;8.658;2024-01-10T05:19:29;101313.66;;;-2.29;58.60
54854;BME280;40747;49.480;8.658;2024-01-10T05:21:55;101313.91;;;-2.23;58.72
54854;BME280;40747;49.480;8.658;2024-01-10T05:24:20;101304.16;;;-2.31;58.41
54854;BME280;40747;49.480;8.658;2024-01-10T05:26:45;101293.59;;;-2.37;58.84
54854;BME280;40747;49.480;8.658;2024-01-10T05:29:10;101313.56;;;-2.33;59.29
54854;BME280;40747;49.480;8.658;2024-01-10T05:31:36;101311.66;;;-2.37;60.56
54854;BME280;40747;49.480;8.658;2024-01-10T05:34:01;101316.06;;;-2.34;60.99
54854;BME280;40747;49.480;8.658;2024-01-10T05:36:26;101305.72;;;-2.34;60.82
54854;BME280;40747;49.480;8.658;2024-01-10T05:38:52;101309.38;;;-2.29;60.22
54854;BME280;40747;49.480;8.658;2024-01-10T05:41:17;101313.66;;;-2.29;60.38
54854;BME280;40747;49.480;8.658;2024-01-10T05:43:42;101320.25;;;-2.38;61.17
54854;BME280;40747;49.480;8.658;2024-01-10T05:46:09;101308.91;;;-2.41;61.30
54854;BME280;40747;49.480;8.658;2024-01-10T05:48:35;101311.38;;;-2.44;61.64
54854;BME280;40747;49.480;8.658;2024-01-10T05:51:01;101307.25;;;-2.39;61.81
54854;BME280;40747;49.480;8.658;2024-01-10T05:53:26;101313.84;;;-2.48;62.08
54854;BME280;40747;49.480;8.658;2024-01-10T05:55:51;101311.38;;;-2.44;61.66
54854;BME280;40747;49.480;8.658;2024-01-10T05:58:17;101317.88;;;-2.54;63.18
54854;BME280;40747;49.480;8.658;2024-01-10T06:00:42;101315.38;;;-2.74;64.67
54854;BME280;40747;49.480;8.658;2024-01-10T06:03:07;101310.75;;;-2.83;64.49
54854;BME280;40747;49.480;8.658;2024-01-10T06:05:33;101315.59;;;-2.69;64.29
54854;BME280;40747;49.480;8.658;2024-01-10T06:07:58;101308.91;;;-2.64;64.46
54854;BME280;40747;49.480;8.658;2024-01-10T06:10:24;101305.84;;;-2.54;64.09
54854;BME280;40747;49.480;8.658;2024-01-10T06:12:49;101317.91;;;-2.75;63.63
54854;BME280;40747;49.480;8.658;2024-01-10T06:15:14;101311.34;;;-2.90;63.33
54854;BME280;40747;49.480;8.658;2024-01-10T06:17:40;101318.81;;;-2.96;62.78
54854;BME280;40747;49.480;8.658;2024-01-10T06:20:06;101316.28;;;-2.73;63.78
54854;BME280;40747;49.480;8.658;2024-01-10T06:22:32;101295.91;;;-2.67;63.32
54854;BME280;40747;49.480;8.658;2024-01-10T06:24:58;101311.13;;;-2.51;62.77
54854;BME280;40747;49.480;8.658;2024-01-10T06:27:23;101308.78;;;-2.44;63.30
54854;BME280;40747;49.480;8.658;2024-01-10T06:29:48;101308.72;;;-2.46;64.15
54854;BME280;40747;49.480;8.658;2024-01-10T06:32:13;101319.25;;;-2.41;63.23
54854;BME280;40747;49.480;8.658;2024-01-10T06:34:40;101309.84;;;-2.39;62.52
54854;BME280;40747;49.480;8.658;2024-01-10T06:37:05;101315.94;;;-2.37;63.07
54854;BME280;40747;49.480;8.658;2024-01-10T06:39:32;101313.25;;;-2.40;63.56
54854;BME280;40747;49.480;8.658;2024-01-10T06:41:57;101325.16;;;-2.44;63.56
54854;BME280;40747;49.480;8.658;2024-01-10T06:44:23;101326.69;;;-2.49;63.94
54854;BME280;40747;49.480;8.658;2024-01-10T06:46:48;101317.94;;;-2.53;63.63
54854;BME280;40747;49.480;8.658;2024-01-10T06:49:14;101319.63;;;-2.53;63.78
54854;BME280;40747;49.480;8.658;2024-01-10T06:51:39;101321.34;;;-2.54;64.48
54854;BME280;40747;49.480;8.658;2024-01-10T06:54:05;101318.09;;;-2.71;63.85
54854;BME280;40747;49.480;8.658;2024-01-10T06:56:31;101323.81;;;-2.57;63.83
54854;BME280;40747;49.480;8.658;2024-01-10T06:58:57;101323.81;;;-2.57;63.03
54854;BME280;40747;49.480;8.658;2024-01-10T07:01:22;101325.13;;;-2.67;63.21
54854;BME280;40747;49.480;8.658;2024-01-10T07:03:47;101335.28;;;-2.49;63.50
54854;BME280;40747;49.480;8.658;2024-01-10T07:06:13;101331.66;;;-2.54;62.87
54854;BME280;40747;49.480;8.658;2024-01-10T07:08:40;101327.72;;;-2.67;62.82
54854;BME280;40747;49.480;8.658;2024-01-10T07:11:05;101333.94;;;-2.83;63.16
54854;BME280;40747;49.480;8.658;2024-01-10T07:13:30;101334.53;;;-2.90;64.29
54854;BME280;40747;49.480;8.658;2024-01-10T07:15:57;101342.06;;;-2.94;64.48
54854;BME280;40747;49.480;8.658;2024-01-10T07:18:22;101346.84;;;-2.83;64.67
54854;BME280;40747;49.480;8.658;2024-01-10T07:20:47;101339.19;;;-2.81;64.34
54854;BME280;40747;49.480;8.658;2024-01-10T07:23:12;101349.09;;;-2.69;64.86
54854;BME280;40747;49.480;8.658;2024-01-10T07:25:38;101351.34;;;-2.56;65.24
54854;BME280;40747;49.480;8.658;2024-01-10T07:28:03;101351.72;;;-2.47;65.09
54854;BME280;40747;49.480;8.658;2024-01-10T07:30:28;101352.13;;;-2.36;65.00
54854;BME280;40747;49.480;8.658;2024-01-10T07:32:58;101358.59;;;-2.24;64.50
54854;BME280;40747;49.480;8.658;2024-01-10T07:35:23;101359.69;;;-2.18;64.76
54854;BME280;40747;49.480;8.658;2024-01-10T07:37:48;101365.91;;;-2.12;64.93
54854;BME280;40747;49.480;8.658;2024-01-10T07:40:14;101368.56;;;-2.11;63.63
54854;BME280;40747;49.480;8.658;2024-01-10T07:42:39;101375.13;;;-2.19;63.86
54854;BME280;40747;49.480;8.658;2024-01-10T07:45:05;101362.34;;;-2.39;64.90
54854;BME280;40747;49.480;8.658;2024-01-10T07:47:32;101375.88;;;-2.22;65.01
54854;BME280;40747;49.480;8.658;2024-01-10T07:49:59;101370.47;;;-2.28;65.17
54854;BME280;40747;49.480;8.658;2024-01-10T07:52:24;101374.41;;;-2.15;65.29
54854;BME280;40747;49.480;8.658;2024-01-10T07:54:49;101384.50;;;-1.99;64.52
54854;BME280;40747;49.480;8.658;2024-01-10T07:57:15;101388.56;;;-2.05;63.98
54854;BME280;40747;49.480;8.658;2024-01-10T07:59:43;101392.31;;;-1.97;63.94
54854;BME280;40747;49.480;8.658;2024-01-10T08:02:08;101380.78;;;-2.07;63.68
54854;BME280;40747;49.480;8.658;2024-01-10T08:04:35;101385.72;;;-2.34;64.32
54854;BME280;40747;49.480;8.658;2024-01-10T08:07:00;101379.00;;;-2.31;64.63
54854;BME280;40747;49.480;8.658;2024-01-10T08:09:26;101379.53;;;-2.17;65.28
54854;BME280;40747;49.480;8.658;2024-01-10T08:11:51;101384.34;;;-2.03;65.94
54854;BME280;40747;49.480;8.658;2024-01-10T08:14:16;101383.97;;;-2.12;64.85
54854;BME280;40747;49.480;8.658;2024-01-10T08:16:42;101376.34;;;-2.32;64.26
54854;BME280;40747;49.480;8.658;2024-01-10T08:19:08;101380.41;;;-2.39;63.58
54854;BME280;40747;49.480;8.658;2024-01-10T08:21:33;101381.06;;;-2.22;63.72
54854;BME280;40747;49.480;8.658;2024-01-10T08:23:58;101385.97;;;-2.28;63.84
54854;BME280;40747;49.480;8.658;2024-01-10T08:26:24;101366.53;;;-2.20;63.29
54854;BME280;40747;49.480;8.658;2024-01-10T08:28:49;101365.22;;;-2.08;62.88
54854;BME280;40747;49.480;8.658;2024-01-10T08:31:17;101391.50;;;-1.96;62.06
54854;BME280;40747;49.480;8.658;2024-01-10T08:33:43;101395.72;;;-1.98;61.86
54854;BME280;40747;49.480;8.658;2024-01-10T08:36:08;101387.91;;;-2.00;61.64
54854;BME280;40747;49.480;8.658;2024-01-10T08:38:36;101393.97;;;-1.76;61.71
54854;BME280;40747;49.480;8.658;2024-01-10T08:41:02;101394.22;;;-1.69;61.84
54854;BME280;40747;49.480;8.658;2024-01-10T08:43:28;101387.25;;;-1.71;62.39
54854;BME280;40747;49.480;8.658;2024-01-10T08:45:53;101391.69;;;-1.67;63.21
54854;BME280;40747;49.480;8.658;2024-01-10T08:48:19;101367.50;;;-1.69;62.61
54854;BME280;40747;49.480;8.658;2024-01-10T08:50:44;101391.44;;;-1.51;61.83
54854;BME280;40747;49.480;8.658;2024-01-10T08:53:10;101393.28;;;-1.46;61.58
54854;BME280;40747;49.480;8.658;2024-01-10T08:55:35;101391.44;;;-1.51;60.77
54854;BME280;40747;49.480;8.658;2024-01-10T08:58:03;101385.81;;;-1.39;60.32
54854;BME280;40747;49.480;8.658;2024-01-10T09:00:28;101394.00;;;-1.26;60.00
54854;BME280;40747;49.480;8.658;2024-01-10T09:02:57;101379.09;;;-1.34;59.44
54854;BME280;40747;49.480;8.658;2024-01-10T09:05:22;101387.25;;;-1.23;59.22
54854;BME280;40747;49.480;8.658;2024-01-10T09:07:48;101383.56;;;-1.04;59.36
54854;BME280;40747;49.480;8.658;2024-01-10T09:10:13;101378.03;;;-1.14;58.67
54854;BME280;40747;49.480;8.658;2024-01-10T09:12:39;101389.97;;;-1.18;58.64
54854;BME280;40747;49.480;8.658;2024-01-10T09:15:04;101388.38;;;-1.14;58.78
54854;BME280;40747;49.480;8.658;2024-01-10T09:17:30;101392.97;;;-1.06;58.34
54854;BME280;40747;49.480;8.658;2024-01-10T09:19:55;101394.16;;;-1.22;58.33
54854;BME280;40747;49.480;8.658;2024-01-10T09:22:20;101396.44;;;-1.05;58.97
54854;BME280;40747;49.480;8.658;2024-01-10T09:24:45;101402.13;;;-0.90;58.78
54854;BME280;40747;49.480;8.658;2024-01-10T09:27:11;101399.91;;;-0.79;58.06
54854;BME280;40747;49.480;8.658;2024-01-10T09:29:36;101393.19;;;-0.74;57.67
54854;BME280;40747;49.480;8.658;2024-01-10T09:32:02;101394.66;;;-0.55;57.26
54854;BME280;40747;49.480;8.658;2024-01-10T09:34:27;101400.53;;;-0.33;57.29
54854;BME280;40747;49.480;8.658;2024-01-10T09:36:53;101394.78;;;-0.23;57.21
54854;BME280;40747;49.480;8.658;2024-01-10T09:39:19;101392.56;;;-0.10;57.14
54854;BME280;40747;49.480;8.658;2024-01-10T09:41:48;101391.09;;;-0.02;56.66
54854;BME280;40747;49.480;8.658;2024-01-10T09:44:15;101382.50;;;-0.01;56.40
54854;BME280;40747;49.480;8.658;2024-01-10T09:46:43;101387.13;;;0.09;55.79
54854;BME280;40747;49.480;8.658;2024-01-10T09:49:11;101375.97;;;0.12;54.89
54854;BME280;40747;49.480;8.658;2024-01-10T09:51:36;101391.84;;;0.24;54.89
54854;BME280;40747;49.480;8.658;2024-01-10T09:54:03;101385.16;;;0.31;54.18
54854;BME280;40747;49.480;8.658;2024-01-10T09:56:30;101387.28;;;0.15;54.46
54854;BME280;40747;49.480;8.658;2024-01-10T09:58:58;101401.44;;;-0.31;55.06
54854;BME280;40747;49.480;8.658;2024-01-10T10:01:23;101396.72;;;-0.15;55.46
54854;BME280;40747;49.480;8.658;2024-01-10T10:03:49;101399.53;;;0.21;55.38
54854;BME280;40747;49.480;8.658;2024-01-10T10:06:15;101385.47;;;0.43;55.37
54854;BME280;40747;49.480;8.658;2024-01-10T10:08:40;101380.88;;;0.65;55.65
54854;BME280;40747;49.480;8.658;2024-01-10T10:11:07;101397.16;;;0.91;54.50
54854;BME280;40747;49.480;8.658;2024-01-10T10:13:37;101388.88;;;1.06;53.97
54854;BME280;40747;49.480;8.658;2024-01-10T10:16:07;101385.13;;;1.30;53.25
54854;BME280;40747;49.480;8.658;2024-01-10T10:18:34;101378.53;;;1.44;54.26
54854;BME280;40747;49.480;8.658;2024-01-10T10:21:08;101390.19;;;1.60;52.76
54854;BME280;40747;49.480;8.658;2024-01-10T10:23:41;101388.91;;;1.81;52.28
54854;BME280;40747;49.480;8.658;2024-01-10T10:26:10;101389.38;;;2.01;51.86
54854;BME280;40747;49.480;8.658;2024-01-10T10:28:36;101380.91;;;2.10;51.54
54854;BME280;40747;49.480;8.658;2024-01-10T10:31:01;101389.69;;;2.17;51.40
54854;BME280;40747;49.480;8.658;2024-01-10T10:33:27;101395.91;;;1.84;51.69
54854;BME280;40747;49.480;8.658;2024-01-10T10:35:52;101378.38;;;1.37;51.58
54854;BME280;40747;49.480;8.658;2024-01-10T10:38:18;101375.72;;;1.72;52.75
54854;BME280;40747;49.480;8.658;2024-01-10T10:40:43;101374.59;;;1.99;51.92
54854;BME280;40747;49.480;8.658;2024-01-10T10:43:12;101380.34;;;1.85;51.47
54854;BME280;40747;49.480;8.658;2024-01-10T10:45:40;101382.88;;;1.44;52.32
54854;BME280;40747;49.480;8.658;2024-01-10T10:48:09;101394.38;;;1.92;52.15
54854;BME280;40747;49.480;8.658;2024-01-10T10:50:35;101371.59;;;2.21;51.42
54854;BME280;40747;49.480;8.658;2024-01-10T10:53:03;101375.88;;;2.64;51.38
54854;BME280;40747;49.480;8.658;2024-01-10T10:55:29;101379.63;;;2.78;50.37
54854;BME280;40747;49.480;8.658;2024-01-10T10:57:56;101380.56;;;2.82;50.69
54854;BME280;40747;49.480;8.658;2024-01-10T11:00:22;101371.03;;;2.84;50.13
54854;BME280;40747;49.480;8.658;2024-01-10T11:02:55;101365.25;;;3.00;49.97
54854;BME280;40747;49.480;8.658;2024-01-10T11:05:22;101373.44;;;3.23;49.82
54854;BME280;40747;49.480;8.658;2024-01-10T11:07:48;101369.25;;;3.32;49.16
54854;BME280;40747;49.480;8.658;2024-01-10T11:10:19;101335.16;;;3.16;48.97
54854;BME280;40747;49.480;8.658;2024-01-10T11:13:09;101370.22;;;3.40;49.51
54854;BME280;40747;49.480;8.658;2024-01-10T11:21:18;101358.47;;;3.10;49.74
54854;BME280;40747;49.480;8.658;2024-01-10T11:23:51;101337.19;;;2.84;49.84
54854;BME280;40747;49.480;8.658;2024-01-10T11:26:19;101344.75;;;2.68;49.92
54854;BME280;40747;49.480;8.658;2024-01-10T11:28:44;101361.50;;;2.83;50.44
54854;BME280;40747;49.480;8.658;2024-01-10T11:31:10;101363.34;;;2.90;50.34
54854;BME280;40747;49.480;8.658;2024-01-10T11:33:39;101355.69;;;2.99;50.76
54854;BME280;40747;49.480;8.658;2024-01-10T11:36:13;101357.38;;;2.95;50.82
54854;BME280;40747;49.480;8.658;2024-01-10T11:38:59;101360.84;;;2.94;50.50
54854;BME280;40747;49.480;8.658;2024-01-10T11:41:30;101363.41;;;2.93;50.25
54854;BME280;40747;49.480;8.658;2024-01-10T11:46:34;101357.38;;;1.64;51.79
54854;BME280;40747;49.480;8.658;2024-01-10T11:48:59;101351.88;;;0.80;54.16
54854;BME280;40747;49.480;8.658;2024-01-10T11:51:25;101343.59;;;0.29;55.98
54854;BME280;40747;49.480;8.658;2024-01-10T11:53:50;101358.59;;;0.40;55.88
54854;BME280;40747;49.480;8.658;2024-01-10T11:56:18;101367.38;;;0.45;55.93
54854;BME280;40747;49.480;8.658;2024-01-10T11:59:03;101354.91;;;0.31;56.20
54854;BME280;40747;49.480;8.658;2024-01-10T12:01:29;101357.47;;;0.30;57.00
54854;BME280;40747;49.480;8.658;2024-01-10T12:03:55;101350.81;;;0.72;56.18
54854;BME280;40747;49.480;8.658;2024-01-10T12:06:21;101365.44;;;0.38;56.43
54854;BME280;40747;49.480;8.658;2024-01-10T12:08:47;101363.78;;;0.40;56.08
54854;BME280;40747;49.480;8.658;2024-01-10T12:11:13;101339.19;;;-0.05;57.45
54854;BME280;40747;49.480;8.658;2024-01-10T12:13:38;101368.97;;;0.09;57.41
54854;BME280;40747;49.480;8.658;2024-01-10T12:16:04;101361.34;;;0.46;57.40
54854;BME280;40747;49.480;8.658;2024-01-10T12:18:30;101353.34;;;0.70;56.62
54854;BME280;40747;49.480;8.658;2024-01-10T12:20:55;101364.41;;;0.63;55.90
54854;BME280;40747;49.480;8.658;2024-01-10T12:23:21;101342.38;;;0.16;57.13
54854;BME280;40747;49.480;8.658;2024-01-10T12:25:48;101359.88;;;0.24;58.06
54854;BME280;40747;49.480;8.658;2024-01-10T12:28:16;101365.41;;;0.06;57.63
54854;BME280;40747;49.480;8.658;2024-01-10T12:30:42;101364.84;;;0.16;57.56
54854;BME280;40747;49.480;8.658;2024-01-10T12:33:10;101355.13;;;0.09;58.33
54854;BME280;40747;49.480;8.658;2024-01-10T12:35:36;101344.97;;;0.16;57.29
54854;BME280;40747;49.480;8.658;2024-01-10T12:38:03;101357.63;;;0.36;57.21
54854;BME280;40747;49.480;8.658;2024-01-10T12:40:28;101339.19;;;0.57;56.54
54854;BME280;40747;49.480;8.658;2024-01-10T12:43:05;101347.31;;;0.38;57.76
54854;BME280;40747;49.480;8.658;2024-01-10T12:45:31;101342.50;;;0.20;58.66
54854;BME280;40747;49.480;8.658;2024-01-10T12:47:59;101320.59;;;0.08;58.97
54854;BME280;40747;49.480;8.658;2024-01-10T12:50:25;101340.66;;;0.15;57.68
54854;BME280;40747;49.480;8.658;2024-01-10T12:52:51;101325.38;;;0.25;57.84
54854;BME280;40747;49.480;8.658;2024-01-10T12:55:16;101346.63;;;0.13;59.10